Arcadia, Ohio
Current Conditions -  °F | °C
As of 6:14 PM on Thursday 27 Nov 2014 (Local Time) from KFDY Reporting Station
Light Snow Light Snow  
Wind Chill: 21°   Ceiling: 5000
Heat Index: 31°   Visibility: 9mi
Dew Point: 25°   Wind: 14mph
Humidity: 79%   Direction: 280°W
Pressure: 30.24"   Gusts: NA
Location:  41.11°N, 83.52°W
Report Text: KFDY 272314Z AUTO 28012KT 9SM -SN SCT017 OVC050 M01/M04 A3024 RMK AO2 SNB00 P0000 T10061039
Loading
Personal Weather Stations






























Interactive Weather Map New forecast layout! Learn more

10-Day Weather Forecast

Advertisements
Track Severe Weather on mobile